createdAt,value
2023-01-03T00:01:46.316Z,87.65
2023-01-03T00:04:13.910Z,87.08
2023-01-03T00:06:45.692Z,87.40
2023-01-03T00:09:14.679Z,87.11
2023-01-03T00:12:00.396Z,87.50
2023-01-03T00:14:30.478Z,87.32
2023-01-03T00:16:58.994Z,87.22
2023-01-03T00:19:28.090Z,86.91
2023-01-03T00:21:57.251Z,86.67
2023-01-03T00:24:24.612Z,86.86
2023-01-03T00:26:52.067Z,87.02
2023-01-03T00:29:19.508Z,86.85
2023-01-03T00:31:46.897Z,86.65
2023-01-03T00:34:14.560Z,86.65
2023-01-03T00:36:42.094Z,86.99
2023-01-03T00:39:11.770Z,86.57
2023-01-03T00:41:39.681Z,86.63
2023-01-03T00:44:07.697Z,86.33
2023-01-03T00:46:35.510Z,86.55
2023-01-03T00:49:03.242Z,86.22
2023-01-03T00:51:32.264Z,86.15
2023-01-03T00:54:00.917Z,86.36
2023-01-03T00:56:30.589Z,85.85
2023-01-03T00:58:58.581Z,86.71
2023-01-03T01:01:28.082Z,86.97
2023-01-03T01:03:59.705Z,86.52
2023-01-03T01:06:29.791Z,85.97
2023-01-03T01:08:58.775Z,86.20
2023-01-03T01:11:27.513Z,86.20
2023-01-03T01:13:56.841Z,85.71
2023-01-03T01:16:25.786Z,85.90
2023-01-03T01:18:54.367Z,85.86
2023-01-03T01:21:26.661Z,86.06
2023-01-03T01:23:54.484Z,86.00
2023-01-03T01:26:23.801Z,85.87
2023-01-03T01:28:51.922Z,85.55
2023-01-03T01:31:26.744Z,85.60
2023-01-03T01:33:55.237Z,86.09
2023-01-03T01:36:25.829Z,85.62
2023-01-03T01:38:55.357Z,86.01
2023-01-03T01:41:36.737Z,86.22
2023-01-03T01:44:21.797Z,85.67
2023-01-03T01:46:50.673Z,85.41
2023-01-03T01:49:19.726Z,85.82
2023-01-03T01:51:47.168Z,86.15
2023-01-03T01:54:14.737Z,86.27
2023-01-03T01:56:44.111Z,86.23
2023-01-03T01:59:12.324Z,86.60
2023-01-03T02:01:41.260Z,86.21
2023-01-03T02:04:12.209Z,86.87
2023-01-03T02:06:40.130Z,86.33
2023-01-03T02:09:07.465Z,86.72
2023-01-03T02:11:41.861Z,86.65
2023-01-03T02:14:18.273Z,86.61
2023-01-03T02:16:59.104Z,86.38
2023-01-03T02:19:48.874Z,86.38
2023-01-03T02:22:52.257Z,86.30
2023-01-03T02:25:44.878Z,86.22
2023-01-03T02:28:34.705Z,85.75
2023-01-03T02:31:05.745Z,85.41
2023-01-03T02:33:37.586Z,85.41
2023-01-03T02:36:08.239Z,84.99
2023-01-03T02:38:42.990Z,84.30
2023-01-03T02:41:16.786Z,84.00
2023-01-03T02:43:49.100Z,84.22
2023-01-03T02:46:23.243Z,84.17
2023-01-03T02:48:54.372Z,83.64
2023-01-03T02:51:24.525Z,83.98
2023-01-03T02:53:52.118Z,83.64
2023-01-03T02:56:23.793Z,83.63
2023-01-03T02:58:56.084Z,83.50
2023-01-03T03:01:25.250Z,83.71
2023-01-03T03:03:53.260Z,83.31
2023-01-03T03:06:24.710Z,83.39
2023-01-03T03:08:52.088Z,83.45
2023-01-03T03:11:38.015Z,83.05
2023-01-03T03:14:09.085Z,83.51
2023-01-03T03:16:50.798Z,83.94
2023-01-03T03:19:42.373Z,83.91
2023-01-03T03:22:33.643Z,83.66
2023-01-03T03:25:03.470Z,83.48
2023-01-03T03:27:50.053Z,83.21
2023-01-03T03:30:20.681Z,83.79
2023-01-03T03:32:52.341Z,83.82
2023-01-03T03:35:22.687Z,83.68
2023-01-03T03:37:51.114Z,83.60
2023-01-03T03:40:36.189Z,83.71
2023-01-03T03:43:24.384Z,83.20
2023-01-03T03:45:56.463Z,83.18
2023-01-03T03:48:26.802Z,83.34
2023-01-03T03:50:56.493Z,83.50
2023-01-03T03:53:26.361Z,83.36
2023-01-03T03:55:56.858Z,83.51
2023-01-03T03:58:26.564Z,83.62
2023-01-03T04:00:54.173Z,83.27
2023-01-03T04:03:22.005Z,83.57
2023-01-03T04:05:54.752Z,83.86
2023-01-03T04:08:22.193Z,83.71
2023-01-03T04:10:50.002Z,83.70
2023-01-03T04:13:17.325Z,83.50
2023-01-03T04:15:44.625Z,83.32
2023-01-03T04:18:11.958Z,83.74
2023-01-03T04:20:39.258Z,83.04
2023-01-03T04:23:07.892Z,83.47
2023-01-03T04:25:35.258Z,83.33
2023-01-03T04:28:02.654Z,83.35
2023-01-03T04:30:29.974Z,83.64
2023-01-03T04:32:57.356Z,83.13
2023-01-03T04:35:24.677Z,83.33
2023-01-03T04:37:51.982Z,83.23
2023-01-03T04:40:20.630Z,83.79
2023-01-03T04:43:05.325Z,83.56
2023-01-03T04:45:32.709Z,83.98
2023-01-03T04:48:00.113Z,84.05
2023-01-03T04:50:27.535Z,83.80
2023-01-03T04:52:54.876Z,83.73
2023-01-03T04:55:23.775Z,84.17
2023-01-03T04:57:51.155Z,84.22
2023-01-03T05:00:19.014Z,83.62
2023-01-03T05:02:46.350Z,83.99
2023-01-03T05:05:13.699Z,84.39
2023-01-03T05:07:41.070Z,84.16
2023-01-03T05:10:09.104Z,84.20
2023-01-03T05:12:37.761Z,84.14
2023-01-03T05:15:05.634Z,84.13
2023-01-03T05:17:32.942Z,84.45
2023-01-03T05:20:17.857Z,83.97
2023-01-03T05:23:01.803Z,84.22
2023-01-03T05:25:46.505Z,84.35
2023-01-03T05:28:17.474Z,84.56
2023-01-03T05:30:45.170Z,83.96
2023-01-03T05:33:12.554Z,84.27
2023-01-03T05:35:39.925Z,84.27
2023-01-03T05:38:07.540Z,84.17
2023-01-03T05:40:40.945Z,83.99
2023-01-03T05:43:09.182Z,84.62
2023-01-03T05:45:38.140Z,84.29
2023-01-03T05:48:06.375Z,84.10
2023-01-03T05:50:33.702Z,84.31
2023-01-03T05:53:04.859Z,84.15
2023-01-03T05:55:32.190Z,84.24
2023-01-03T05:57:59.531Z,84.33
2023-01-03T06:00:26.908Z,84.30
2023-01-03T06:02:56.010Z,84.27
2023-01-03T06:05:23.831Z,84.13
2023-01-03T06:07:51.285Z,84.28
2023-01-03T06:10:18.876Z,84.22
2023-01-03T06:12:46.213Z,83.94
2023-01-03T06:15:13.569Z,83.99
2023-01-03T06:17:55.119Z,83.88
2023-01-03T06:20:24.090Z,83.95
2023-01-03T06:22:51.422Z,84.04
2023-01-03T06:25:18.921Z,83.98
2023-01-03T06:27:46.658Z,83.91
2023-01-03T06:30:15.641Z,84.03
2023-01-03T06:32:43.598Z,84.27
2023-01-03T06:35:11.532Z,84.24
2023-01-03T06:37:40.270Z,84.09
2023-01-03T06:40:08.673Z,84.02
2023-01-03T06:42:42.861Z,83.72
2023-01-03T06:45:29.806Z,83.82
2023-01-03T06:48:15.010Z,83.68
2023-01-03T06:51:00.820Z,83.79
2023-01-03T06:53:32.821Z,83.73
2023-01-03T06:56:00.182Z,83.59
2023-01-03T06:58:27.698Z,83.51
2023-01-03T07:00:55.818Z,83.49
2023-01-03T07:03:23.417Z,83.48
2023-01-03T07:05:51.074Z,83.48
2023-01-03T07:08:18.436Z,83.31
2023-01-03T07:10:47.146Z,83.26
2023-01-03T07:13:32.344Z,83.20
2023-01-03T07:15:59.745Z,83.36
2023-01-03T07:18:27.133Z,83.44
2023-01-03T07:20:54.760Z,83.23
2023-01-03T07:23:22.169Z,83.28
2023-01-03T07:25:50.907Z,83.05
2023-01-03T07:28:18.277Z,82.97
2023-01-03T07:30:46.617Z,83.17
2023-01-03T07:33:15.825Z,83.29
2023-01-03T07:35:43.587Z,83.03
2023-01-03T07:38:13.178Z,83.00
2023-01-03T07:40:40.775Z,82.90
2023-01-03T07:43:27.987Z,83.12
2023-01-03T07:45:55.381Z,83.02
2023-01-03T07:48:22.849Z,83.56
2023-01-03T07:50:50.248Z,83.51
2023-01-03T07:53:18.002Z,83.32
2023-01-03T07:55:46.166Z,83.35
2023-01-03T07:58:14.883Z,83.48
2023-01-03T08:00:43.535Z,83.68
2023-01-03T08:03:12.000Z,83.36
2023-01-03T08:05:39.702Z,83.49
2023-01-03T08:08:07.155Z,83.11
2023-01-03T08:10:51.856Z,83.32
2023-01-03T08:13:20.696Z,83.09
2023-01-03T08:15:49.297Z,83.45
2023-01-03T08:18:17.025Z,83.41
2023-01-03T08:20:44.496Z,83.74
2023-01-03T08:23:11.991Z,83.68
2023-01-03T08:25:39.779Z,83.46
2023-01-03T08:28:07.716Z,83.41
2023-01-03T08:30:39.153Z,83.22
2023-01-03T08:33:07.732Z,83.69
2023-01-03T08:35:36.950Z,83.50
2023-01-03T08:38:05.862Z,83.97
2023-01-03T08:40:39.695Z,83.70
2023-01-03T08:43:09.286Z,83.93
2023-01-03T08:45:38.751Z,84.27
2023-01-03T08:48:06.828Z,83.96
2023-01-03T08:50:34.601Z,84.46
2023-01-03T08:53:01.956Z,85.05
2023-01-03T08:55:29.349Z,85.22
2023-01-03T08:57:59.634Z,85.56
2023-01-03T09:00:27.438Z,85.25
2023-01-03T09:02:59.440Z,85.22
2023-01-03T09:05:27.188Z,85.51
2023-01-03T09:07:55.062Z,85.30
2023-01-03T09:10:23.095Z,85.19
2023-01-03T09:12:50.946Z,85.42
2023-01-03T09:15:18.328Z,85.05
2023-01-03T09:17:47.293Z,85.19
2023-01-03T09:20:18.172Z,85.34
2023-01-03T09:22:47.801Z,85.20
2023-01-03T09:25:16.015Z,85.91
2023-01-03T09:27:46.777Z,85.13
2023-01-03T09:30:14.761Z,85.02
2023-01-03T09:32:42.203Z,85.23
2023-01-03T09:35:10.625Z,85.37
2023-01-03T09:37:43.967Z,85.25
2023-01-03T09:40:14.662Z,85.11
2023-01-03T09:42:59.646Z,84.99
2023-01-03T09:45:28.528Z,84.66
2023-01-03T09:47:56.932Z,84.93
2023-01-03T09:50:35.191Z,84.46
2023-01-03T09:53:33.766Z,84.98
2023-01-03T09:56:19.050Z,85.04
2023-01-03T09:59:07.795Z,85.27
2023-01-03T10:01:59.916Z,85.05
2023-01-03T10:04:50.090Z,86.22
2023-01-03T10:07:27.045Z,85.12
2023-01-03T10:10:01.551Z,85.25
2023-01-03T10:12:32.238Z,85.07
2023-01-03T10:15:08.795Z,86.14
2023-01-03T10:17:39.734Z,85.71
2023-01-03T10:20:18.990Z,86.90
2023-01-03T10:22:47.359Z,86.97
2023-01-03T10:25:20.275Z,87.18
2023-01-03T10:27:51.267Z,87.16
2023-01-03T10:30:20.319Z,86.18
2023-01-03T10:33:03.467Z,87.07
2023-01-03T10:35:32.629Z,87.02
2023-01-03T10:38:00.600Z,86.42
2023-01-03T10:40:38.021Z,87.86
2023-01-03T10:43:10.528Z,87.90
2023-01-03T10:45:51.686Z,87.86
2023-01-03T10:48:19.299Z,87.66
2023-01-03T10:50:47.264Z,88.22
2023-01-03T10:53:16.823Z,88.33
2023-01-03T10:55:50.939Z,88.06
2023-01-03T10:58:22.524Z,88.05
2023-01-03T11:00:50.363Z,88.08
2023-01-03T11:03:19.436Z,88.23
2023-01-03T11:05:48.405Z,88.27
2023-01-03T11:08:22.475Z,87.81
2023-01-03T11:10:54.181Z,87.71
2023-01-03T11:13:26.224Z,87.33
2023-01-03T11:15:57.924Z,87.30
2023-01-03T11:18:27.515Z,87.06
2023-01-03T11:21:01.864Z,86.93
2023-01-03T11:23:40.905Z,87.24
2023-01-03T11:26:16.238Z,87.32
2023-01-03T11:29:14.302Z,87.10
2023-01-03T11:31:48.108Z,87.17
2023-01-03T11:34:54.925Z,87.06
2023-01-03T11:37:23.529Z,86.51
2023-01-03T11:40:01.674Z,86.15
2023-01-03T11:42:35.828Z,86.33
2023-01-03T11:45:26.124Z,86.02
2023-01-03T11:48:01.633Z,86.08
2023-01-03T11:50:35.686Z,85.97
2023-01-03T11:53:05.096Z,85.84
2023-01-03T11:55:45.490Z,86.24
2023-01-03T11:58:46.400Z,86.16
2023-01-03T12:01:22.073Z,86.36
2023-01-03T12:04:01.364Z,86.27
2023-01-03T12:06:33.973Z,86.97
2023-01-03T12:09:15.156Z,87.27
2023-01-03T12:11:57.509Z,87.52
2023-01-03T12:14:30.130Z,88.12
2023-01-03T12:17:00.975Z,88.03
2023-01-03T12:19:33.128Z,87.70
2023-01-03T12:22:05.970Z,86.93
2023-01-03T12:24:36.948Z,86.76
2023-01-03T12:27:09.461Z,86.73
2023-01-03T12:29:47.543Z,86.10
2023-01-03T12:32:17.575Z,86.01
2023-01-03T12:34:48.706Z,85.55
2023-01-03T12:37:20.026Z,85.06
2023-01-03T12:39:55.011Z,84.47
2023-01-03T12:42:30.557Z,84.48
2023-01-03T12:45:05.073Z,84.29
2023-01-03T12:47:37.853Z,83.75
2023-01-03T12:50:13.897Z,83.71
2023-01-03T12:52:42.242Z,83.03
2023-01-03T12:55:18.860Z,83.32
2023-01-03T12:58:04.563Z,82.61
2023-01-03T13:00:58.202Z,82.82
2023-01-03T13:03:28.671Z,83.11
2023-01-03T13:05:59.061Z,83.15
2023-01-03T13:08:31.558Z,82.47
2023-01-03T13:11:02.358Z,83.04
2023-01-03T13:13:30.370Z,83.73
2023-01-03T13:15:59.157Z,83.83
2023-01-03T13:18:35.961Z,84.54
2023-01-03T13:21:41.839Z,84.20
2023-01-03T13:24:10.758Z,84.58
2023-01-03T13:26:38.105Z,85.52
2023-01-03T13:29:42.254Z,84.57
2023-01-03T13:32:16.567Z,84.26
2023-01-03T13:34:44.518Z,83.89
2023-01-03T13:37:22.165Z,83.15
2023-01-03T13:40:52.115Z,83.29
2023-01-03T13:43:18.593Z,83.22
2023-01-03T13:45:51.052Z,83.33
2023-01-03T13:48:20.136Z,83.07
2023-01-03T13:51:30.080Z,83.30
2023-01-03T13:54:03.121Z,83.67
2023-01-03T13:56:34.155Z,83.71
2023-01-03T13:59:12.530Z,84.15
2023-01-03T14:01:51.115Z,84.06
2023-01-03T14:05:05.196Z,84.62
2023-01-03T14:07:52.232Z,85.30
2023-01-03T14:10:33.150Z,85.70
2023-01-03T14:13:26.770Z,85.71
2023-01-03T14:16:12.643Z,85.25
2023-01-03T14:18:40.909Z,85.32
2023-01-03T14:21:15.425Z,85.21
2023-01-03T14:24:01.884Z,85.53
2023-01-03T14:26:31.963Z,85.85
2023-01-03T14:29:00.723Z,87.03
2023-01-03T14:31:28.780Z,87.32
2023-01-03T14:33:59.245Z,87.68
2023-01-03T14:36:27.010Z,88.48
2023-01-03T14:38:55.695Z,88.40
2023-01-03T14:41:31.309Z,88.49
2023-01-03T14:44:06.869Z,88.99
2023-01-03T14:46:34.518Z,89.05
2023-01-03T14:49:04.243Z,88.49
2023-01-03T14:51:32.844Z,88.37
2023-01-03T14:54:00.978Z,88.67
2023-01-03T14:56:29.190Z,89.18
2023-01-03T14:58:56.926Z,90.15
2023-01-03T15:01:27.021Z,90.23
2023-01-03T15:03:54.826Z,90.71
2023-01-03T15:06:25.592Z,89.91
2023-01-03T15:08:54.282Z,89.29
2023-01-03T15:11:24.424Z,90.40
2023-01-03T15:13:55.411Z,90.57
2023-01-03T15:16:29.901Z,91.69
2023-01-03T15:19:04.031Z,91.26
2023-01-03T15:21:31.681Z,91.66
2023-01-03T15:23:59.260Z,91.96
2023-01-03T15:26:28.338Z,92.63
2023-01-03T15:28:59.439Z,92.54
2023-01-03T15:31:36.851Z,92.63
2023-01-03T15:34:13.652Z,92.50
2023-01-03T15:36:41.463Z,92.30
2023-01-03T15:39:10.279Z,92.24
2023-01-03T15:42:12.763Z,91.19
2023-01-03T15:44:45.174Z,91.93
2023-01-03T15:47:18.079Z,92.13
2023-01-03T15:49:47.863Z,92.36
2023-01-03T15:52:15.748Z,92.55
2023-01-03T15:54:44.089Z,92.84
2023-01-03T15:57:14.286Z,93.68
2023-01-03T15:59:43.643Z,94.03
2023-01-03T16:02:17.009Z,95.22
2023-01-03T16:04:45.329Z,95.17
2023-01-03T16:07:13.348Z,95.41
2023-01-03T16:09:40.906Z,95.63
2023-01-03T16:12:12.513Z,95.17
2023-01-03T16:14:42.253Z,95.45
2023-01-03T16:17:17.064Z,95.71
2023-01-03T16:19:49.670Z,95.13
2023-01-03T16:22:34.895Z,94.68
2023-01-03T16:25:03.067Z,95.01
2023-01-03T16:27:30.449Z,94.85
2023-01-03T16:29:57.917Z,94.29
2023-01-03T16:32:27.432Z,94.60
2023-01-03T16:34:56.826Z,95.29
2023-01-03T16:37:24.160Z,95.34
2023-01-03T16:39:51.477Z,95.62
2023-01-03T16:42:21.305Z,95.68
2023-01-03T16:44:49.365Z,95.75
2023-01-03T16:47:20.103Z,95.45
2023-01-03T16:49:51.411Z,95.71
2023-01-03T16:52:23.691Z,95.10
2023-01-03T16:54:51.181Z,94.90
2023-01-03T16:57:19.458Z,93.91
2023-01-03T16:59:47.819Z,93.60
2023-01-03T17:02:15.619Z,93.03
2023-01-03T17:04:43.142Z,93.34
2023-01-03T17:07:16.237Z,93.46
2023-01-03T17:09:47.180Z,94.51
2023-01-03T17:12:16.090Z,92.85
2023-01-03T17:14:43.482Z,92.81
2023-01-03T17:17:16.250Z,93.06
2023-01-03T17:20:03.532Z,93.72
2023-01-03T17:22:31.055Z,94.75
2023-01-03T17:24:59.760Z,94.58
2023-01-03T17:27:32.681Z,94.18
2023-01-03T17:30:03.480Z,95.03
2023-01-03T17:32:30.936Z,94.62
2023-01-03T17:34:58.395Z,94.05
2023-01-03T17:37:26.590Z,93.47
2023-01-03T17:39:55.701Z,93.77
2023-01-03T17:42:24.605Z,93.28
2023-01-03T17:45:24.415Z,92.61
2023-01-03T17:48:09.372Z,92.87
2023-01-03T17:50:36.706Z,92.22
2023-01-03T17:53:04.144Z,92.11
2023-01-03T17:55:31.791Z,92.02
2023-01-03T17:58:02.613Z,92.04
2023-01-03T18:00:31.103Z,92.57
2023-01-03T18:03:00.426Z,92.98
2023-01-03T18:05:29.691Z,93.30
2023-01-03T18:07:57.690Z,93.02
2023-01-03T18:10:29.506Z,93.75
2023-01-03T18:12:56.871Z,94.38
2023-01-03T18:15:25.568Z,94.55
2023-01-03T18:17:53.513Z,93.93
2023-01-03T18:20:21.265Z,93.65
2023-01-03T18:22:48.848Z,94.21
2023-01-03T18:25:21.998Z,94.27
2023-01-03T18:27:51.546Z,95.51
2023-01-03T18:30:19.055Z,96.15
2023-01-03T18:32:47.917Z,96.62
2023-01-03T18:35:22.329Z,97.05
2023-01-03T18:37:55.580Z,97.45
2023-01-03T18:40:27.677Z,97.87
2023-01-03T18:43:12.566Z,97.46
2023-01-03T18:45:40.983Z,97.90
2023-01-03T18:48:13.577Z,97.82
2023-01-03T18:50:41.216Z,97.70
2023-01-03T18:53:15.454Z,97.97
2023-01-03T18:55:43.065Z,96.85
2023-01-03T18:58:18.294Z,97.54
2023-01-03T19:00:46.313Z,97.20
2023-01-03T19:03:21.298Z,96.78
2023-01-03T19:05:48.789Z,97.00
2023-01-03T19:08:17.334Z,96.82
2023-01-03T19:10:44.889Z,97.30
2023-01-03T19:13:24.303Z,96.80
2023-01-03T19:15:51.711Z,97.18
2023-01-03T19:18:20.598Z,97.10
2023-01-03T19:20:48.381Z,97.25
2023-01-03T19:23:20.366Z,97.28
2023-01-03T19:25:47.768Z,97.32
2023-01-03T19:28:15.723Z,98.54
2023-01-03T19:30:46.368Z,99.08
2023-01-03T19:33:15.514Z,99.41
2023-01-03T19:35:44.541Z,99.17
2023-01-03T19:38:12.121Z,99.01
2023-01-03T19:40:40.318Z,98.69
2023-01-03T19:43:07.940Z,99.28
2023-01-03T19:45:37.299Z,99.47
2023-01-03T19:48:07.428Z,99.35
2023-01-03T19:50:35.862Z,99.44
2023-01-03T19:53:06.131Z,99.24
2023-01-03T19:55:35.213Z,98.66
2023-01-03T19:58:06.777Z,98.40
2023-01-03T20:00:34.191Z,97.74
2023-01-03T20:03:03.449Z,97.51
2023-01-03T20:05:35.270Z,96.75
2023-01-03T20:08:11.633Z,96.79
2023-01-03T20:10:41.278Z,96.33
2023-01-03T20:13:15.264Z,96.25
2023-01-03T20:15:44.711Z,96.14
2023-01-03T20:18:24.813Z,96.07
2023-01-03T20:20:52.934Z,96.29
2023-01-03T20:23:21.768Z,96.30
2023-01-03T20:25:50.538Z,97.01
2023-01-03T20:28:19.819Z,96.93
2023-01-03T20:30:47.537Z,96.94
2023-01-03T20:33:14.915Z,95.92
2023-01-03T20:38:31.059Z,96.63
2023-01-03T20:40:58.406Z,96.74
2023-01-03T20:43:25.791Z,96.87
2023-01-03T20:45:55.143Z,97.55
2023-01-03T20:48:26.304Z,96.67
2023-01-03T20:50:54.352Z,96.08
2023-01-03T20:53:23.249Z,95.78
2023-01-03T20:55:52.871Z,95.48
2023-01-03T20:58:22.360Z,94.77
2023-01-03T21:00:49.797Z,94.74
2023-01-03T21:03:17.443Z,94.81
2023-01-03T21:05:45.076Z,95.49
2023-01-03T21:08:33.260Z,94.96
2023-01-03T21:11:02.528Z,95.68
2023-01-03T21:13:30.024Z,95.45
2023-01-03T21:15:57.554Z,95.31
2023-01-03T21:18:24.962Z,95.81
2023-01-03T21:20:52.270Z,96.64
2023-01-03T21:23:20.721Z,96.14
2023-01-03T21:25:48.767Z,96.82
2023-01-03T21:28:17.412Z,97.43
2023-01-03T21:30:44.838Z,98.84
2023-01-03T21:33:15.679Z,99.39
2023-01-03T21:35:43.095Z,99.24
2023-01-03T21:38:10.738Z,99.44
2023-01-03T21:40:38.067Z,99.51
2023-01-03T21:43:07.861Z,100.00
2023-01-03T21:45:39.949Z,99.86
2023-01-03T21:48:10.263Z,100.00
2023-01-03T21:50:38.956Z,99.27
2023-01-03T21:53:06.533Z,99.21
2023-01-03T21:55:33.949Z,98.88
2023-01-03T21:58:01.662Z,98.92
2023-01-03T22:00:28.993Z,98.65
2023-01-03T22:03:15.485Z,99.45
2023-01-03T22:05:42.839Z,98.79
2023-01-03T22:08:10.631Z,99.46
2023-01-03T22:10:37.992Z,99.62
2023-01-03T22:13:06.963Z,100.00
2023-01-03T22:15:36.200Z,100.00
2023-01-03T22:18:05.977Z,100.00
2023-01-03T22:20:38.225Z,100.00
2023-01-03T22:23:06.717Z,100.00
2023-01-03T22:25:34.116Z,100.00
2023-01-03T22:28:01.465Z,100.00
2023-01-03T22:30:28.808Z,100.00
2023-01-03T22:32:56.622Z,100.00
2023-01-03T22:35:25.291Z,100.00
2023-01-03T22:37:52.619Z,100.00
2023-01-03T22:40:20.024Z,100.00
2023-01-03T22:42:47.325Z,100.00
2023-01-03T22:45:15.421Z,100.00
2023-01-03T22:47:42.784Z,100.00
2023-01-03T22:50:11.394Z,100.00
2023-01-03T22:52:40.449Z,100.00
2023-01-03T22:55:08.763Z,100.00
2023-01-03T22:57:36.088Z,100.00
2023-01-03T23:00:03.581Z,100.00
2023-01-03T23:02:40.942Z,100.00
2023-01-03T23:05:09.260Z,100.00
2023-01-03T23:07:36.632Z,100.00
2023-01-03T23:10:06.037Z,100.00
2023-01-03T23:12:50.702Z,100.00
2023-01-03T23:15:18.224Z,100.00
2023-01-03T23:17:57.562Z,100.00
2023-01-03T23:20:27.181Z,100.00
2023-01-03T23:22:59.623Z,100.00
2023-01-03T23:25:28.735Z,100.00
2023-01-03T23:27:56.088Z,100.00
2023-01-03T23:30:23.509Z,100.00
2023-01-03T23:32:50.916Z,100.00
2023-01-03T23:35:19.380Z,100.00
2023-01-03T23:37:47.667Z,100.00
2023-01-03T23:40:15.468Z,100.00
2023-01-03T23:42:44.152Z,100.00
2023-01-03T23:45:11.913Z,100.00
2023-01-03T23:47:39.237Z,100.00
2023-01-03T23:50:06.862Z,100.00
2023-01-03T23:52:34.752Z,100.00
2023-01-03T23:55:08.521Z,100.00
2023-01-03T23:57:39.639Z,100.00
